sensor_id;sensor_type;location;lat;lon;timestamp;temperature;humidity
70548;DHT22;58099;43.406;3.698;2022-12-18T00:00:46;5.60;99.90
70548;DHT22;58099;43.406;3.698;2022-12-18T00:03:13;5.50;99.90
70548;DHT22;58099;43.406;3.698;2022-12-18T00:05:50;5.50;99.90
70548;DHT22;58099;43.406;3.698;2022-12-18T00:08:16;5.50;99.90
70548;DHT22;58099;43.406;3.698;2022-12-18T00:10:42;5.50;99.90
70548;DHT22;58099;43.406;3.698;2022-12-18T00:13:08;5.50;99.90
70548;DHT22;58099;43.406;3.698;2022-12-18T00:15:35;5.50;99.90
70548;DHT22;58099;43.406;3.698;2022-12-18T00:18:00;5.50;99.90
70548;DHT22;58099;43.406;3.698;2022-12-18T00:20:26;5.40;99.90
70548;DHT22;58099;43.406;3.698;2022-12-18T00:22:52;5.40;99.90
70548;DHT22;58099;43.406;3.698;2022-12-18T06:58:52;6.20;99.90
70548;DHT22;58099;43.406;3.698;2022-12-18T07:01:18;6.20;99.90
70548;DHT22;58099;43.406;3.698;2022-12-18T07:03:44;6.20;99.90
70548;DHT22;58099;43.406;3.698;2022-12-18T07:06:18;6.30;99.90
70548;DHT22;58099;43.406;3.698;2022-12-18T07:08:44;6.20;99.90
70548;DHT22;58099;43.406;3.698;2022-12-18T07:11:11;6.30;99.90
70548;DHT22;58099;43.406;3.698;2022-12-18T07:13:36;6.30;99.90
70548;DHT22;58099;43.406;3.698;2022-12-18T07:16:07;6.40;99.90
70548;DHT22;58099;43.406;3.698;2022-12-18T07:18:33;6.50;99.90
70548;DHT22;58099;43.406;3.698;2022-12-18T07:21:03;6.50;99.90
70548;DHT22;58099;43.406;3.698;2022-12-18T07:23:29;6.60;99.90
70548;DHT22;58099;43.406;3.698;2022-12-18T07:25:54;6.50;99.90
70548;DHT22;58099;43.406;3.698;2022-12-18T07:28:20;6.50;99.90
70548;DHT22;58099;43.406;3.698;2022-12-18T07:30:46;6.60;99.90
70548;DHT22;58099;43.406;3.698;2022-12-18T07:33:11;6.60;99.90
70548;DHT22;58099;43.406;3.698;2022-12-18T07:35:37;6.60;99.90
70548;DHT22;58099;43.406;3.698;2022-12-18T07:38:03;6.50;99.70
70548;DHT22;58099;43.406;3.698;2022-12-18T07:40:28;6.50;99.80
70548;DHT22;58099;43.406;3.698;2022-12-18T07:42:54;6.60;99.80
70548;DHT22;58099;43.406;3.698;2022-12-18T07:45:20;6.60;99.50
70548;DHT22;58099;43.406;3.698;2022-12-18T07:47:45;6.60;99.60
70548;DHT22;58099;43.406;3.698;2022-12-18T07:50:11;6.60;99.50
70548;DHT22;58099;43.406;3.698;2022-12-18T07:52:38;6.70;99.70
70548;DHT22;58099;43.406;3.698;2022-12-18T07:55:04;6.70;99.40
70548;DHT22;58099;43.406;3.698;2022-12-18T07:57:30;6.70;99.60
70548;DHT22;58099;43.406;3.698;2022-12-18T07:59:56;6.90;99.90
70548;DHT22;58099;43.406;3.698;2022-12-18T08:02:22;6.80;99.90
70548;DHT22;58099;43.406;3.698;2022-12-18T08:04:47;6.90;99.80
70548;DHT22;58099;43.406;3.698;2022-12-18T08:07:13;6.90;99.80
70548;DHT22;58099;43.406;3.698;2022-12-18T08:09:39;6.90;99.90
70548;DHT22;58099;43.406;3.698;2022-12-18T08:12:05;6.90;99.90
70548;DHT22;58099;43.406;3.698;2022-12-18T08:14:31;6.90;99.90
70548;DHT22;58099;43.406;3.698;2022-12-18T08:16:56;6.90;99.90
70548;DHT22;58099;43.406;3.698;2022-12-18T08:19:23;6.90;99.90
70548;DHT22;58099;43.406;3.698;2022-12-18T08:21:48;6.90;99.90
70548;DHT22;58099;43.406;3.698;2022-12-18T08:24:14;6.90;99.90
70548;DHT22;58099;43.406;3.698;2022-12-18T08:26:40;6.90;99.90
70548;DHT22;58099;43.406;3.698;2022-12-18T08:29:06;7.00;99.90
70548;DHT22;58099;43.406;3.698;2022-12-18T08:31:31;7.00;99.90
70548;DHT22;58099;43.406;3.698;2022-12-18T08:33:58;7.10;99.90
70548;DHT22;58099;43.406;3.698;2022-12-18T08:36:24;7.00;99.90
70548;DHT22;58099;43.406;3.698;2022-12-18T08:38:50;7.00;99.90
70548;DHT22;58099;43.406;3.698;2022-12-18T08:41:17;7.00;99.90
70548;DHT22;58099;43.406;3.698;2022-12-18T08:43:43;6.90;99.90
70548;DHT22;58099;43.406;3.698;2022-12-18T08:46:35;6.90;99.90
70548;DHT22;58099;43.406;3.698;2022-12-18T08:49:02;6.90;99.90
70548;DHT22;58099;43.406;3.698;2022-12-18T08:51:28;6.90;99.90
70548;DHT22;58099;43.406;3.698;2022-12-18T08:53:54;6.90;99.90
70548;DHT22;58099;43.406;3.698;2022-12-18T08:56:20;6.90;99.90
70548;DHT22;58099;43.406;3.698;2022-12-18T08:58:46;6.90;99.90
70548;DHT22;58099;43.406;3.698;2022-12-18T09:01:12;6.90;99.90
70548;DHT22;58099;43.406;3.698;2022-12-18T09:03:39;6.90;99.90
70548;DHT22;58099;43.406;3.698;2022-12-18T09:06:05;7.00;99.90
70548;DHT22;58099;43.406;3.698;2022-12-18T09:08:31;7.10;99.90
70548;DHT22;58099;43.406;3.698;2022-12-18T09:10:56;7.10;99.90
70548;DHT22;58099;43.406;3.698;2022-12-18T09:13:22;7.20;99.90
70548;DHT22;58099;43.406;3.698;2022-12-18T09:15:50;7.20;99.90
70548;DHT22;58099;43.406;3.698;2022-12-18T09:18:18;7.20;99.90
70548;DHT22;58099;43.406;3.698;2022-12-18T09:20:44;7.20;99.90
70548;DHT22;58099;43.406;3.698;2022-12-18T09:23:11;7.20;99.90
70548;DHT22;58099;43.406;3.698;2022-12-18T09:25:37;7.30;99.90
70548;DHT22;58099;43.406;3.698;2022-12-18T09:28:14;7.30;99.90
70548;DHT22;58099;43.406;3.698;2022-12-18T09:30:46;7.40;99.90
70548;DHT22;58099;43.406;3.698;2022-12-18T09:33:11;7.40;99.90
70548;DHT22;58099;43.406;3.698;2022-12-18T09:35:40;7.50;99.90
70548;DHT22;58099;43.406;3.698;2022-12-18T09:38:06;7.50;99.90
70548;DHT22;58099;43.406;3.698;2022-12-18T09:40:45;7.60;99.90
70548;DHT22;58099;43.406;3.698;2022-12-18T09:43:37;7.60;99.90
70548;DHT22;58099;43.406;3.698;2022-12-18T09:46:09;7.70;99.90
70548;DHT22;58099;43.406;3.698;2022-12-18T09:48:40;7.70;99.90
70548;DHT22;58099;43.406;3.698;2022-12-18T09:51:16;7.70;99.90
70548;DHT22;58099;43.406;3.698;2022-12-18T09:53:47;7.70;99.90
70548;DHT22;58099;43.406;3.698;2022-12-18T09:56:19;7.80;99.90
70548;DHT22;58099;43.406;3.698;2022-12-18T09:59:00;7.90;99.90
70548;DHT22;58099;43.406;3.698;2022-12-18T10:01:27;7.90;99.90
70548;DHT22;58099;43.406;3.698;2022-12-18T10:03:54;8.00;99.90
70548;DHT22;58099;43.406;3.698;2022-12-18T10:06:25;8.00;99.90
70548;DHT22;58099;43.406;3.698;2022-12-18T10:20:38;8.30;99.90
70548;DHT22;58099;43.406;3.698;2022-12-18T10:23:01;8.30;99.90
70548;DHT22;58099;43.406;3.698;2022-12-18T10:28:11;8.40;99.90
70548;DHT22;58099;43.406;3.698;2022-12-18T10:30:39;8.40;99.90
70548;DHT22;58099;43.406;3.698;2022-12-18T10:33:08;8.30;99.90
70548;DHT22;58099;43.406;3.698;2022-12-18T10:35:36;8.50;99.90
70548;DHT22;58099;43.406;3.698;2022-12-18T10:40:56;8.40;99.90
70548;DHT22;58099;43.406;3.698;2022-12-18T10:43:28;8.40;99.90
70548;DHT22;58099;43.406;3.698;2022-12-18T10:48:27;8.40;99.90
70548;DHT22;58099;43.406;3.698;2022-12-18T10:50:53;8.40;99.90
70548;DHT22;58099;43.406;3.698;2022-12-18T10:53:24;8.50;99.90
70548;DHT22;58099;43.406;3.698;2022-12-18T10:55:52;8.40;99.90
70548;DHT22;58099;43.406;3.698;2022-12-18T11:01:17;8.50;99.90
70548;DHT22;58099;43.406;3.698;2022-12-18T11:06:22;8.70;99.90
70548;DHT22;58099;43.406;3.698;2022-12-18T11:09:04;8.60;99.90
70548;DHT22;58099;43.406;3.698;2022-12-18T11:11:32;8.60;99.90
70548;DHT22;58099;43.406;3.698;2022-12-18T11:14:02;8.60;99.90
70548;DHT22;58099;43.406;3.698;2022-12-18T11:16:33;8.60;99.90
70548;DHT22;58099;43.406;3.698;2022-12-18T11:21:51;8.80;99.90
70548;DHT22;58099;43.406;3.698;2022-12-18T11:26:52;8.90;99.90
70548;DHT22;58099;43.406;3.698;2022-12-18T11:29:31;9.00;99.90
70548;DHT22;58099;43.406;3.698;2022-12-18T11:32:20;9.00;99.90
70548;DHT22;58099;43.406;3.698;2022-12-18T11:35:55;9.10;99.90
70548;DHT22;58099;43.406;3.698;2022-12-18T11:38:23;9.20;99.90
70548;DHT22;58099;43.406;3.698;2022-12-18T11:43:55;9.20;99.90
70548;DHT22;58099;43.406;3.698;2022-12-18T11:46:33;9.20;99.90
70548;DHT22;58099;43.406;3.698;2022-12-18T11:49:14;9.20;99.90
70548;DHT22;58099;43.406;3.698;2022-12-18T11:51:50;9.20;99.90
70548;DHT22;58099;43.406;3.698;2022-12-18T11:54:17;9.20;99.90
70548;DHT22;58099;43.406;3.698;2022-12-18T11:56:51;9.10;99.90
70548;DHT22;58099;43.406;3.698;2022-12-18T11:59:34;9.10;99.90
70548;DHT22;58099;43.406;3.698;2022-12-18T12:10:39;9.30;99.90
70548;DHT22;58099;43.406;3.698;2022-12-18T12:13:29;9.30;99.90
70548;DHT22;58099;43.406;3.698;2022-12-18T12:16:21;9.30;99.90
70548;DHT22;58099;43.406;3.698;2022-12-18T12:21:46;9.30;99.90
70548;DHT22;58099;43.406;3.698;2022-12-18T12:32:34;9.30;99.90
70548;DHT22;58099;43.406;3.698;2022-12-18T12:35:07;9.30;99.90
70548;DHT22;58099;43.406;3.698;2022-12-18T12:38:16;9.30;99.90
70548;DHT22;58099;43.406;3.698;2022-12-18T12:41:06;9.40;99.90
70548;DHT22;58099;43.406;3.698;2022-12-18T12:43:56;9.40;99.90
70548;DHT22;58099;43.406;3.698;2022-12-18T12:46:24;9.30;99.90
70548;DHT22;58099;43.406;3.698;2022-12-18T12:51:35;9.30;99.90
70548;DHT22;58099;43.406;3.698;2022-12-18T12:54:05;9.40;99.90
70548;DHT22;58099;43.406;3.698;2022-12-18T12:57:01;9.40;99.90
70548;DHT22;58099;43.406;3.698;2022-12-18T13:00:00;9.40;99.90
70548;DHT22;58099;43.406;3.698;2022-12-18T13:02:35;9.30;99.90
70548;DHT22;58099;43.406;3.698;2022-12-18T13:07:53;9.30;99.90
70548;DHT22;58099;43.406;3.698;2022-12-18T13:12:59;9.30;99.90
70548;DHT22;58099;43.406;3.698;2022-12-18T13:15:42;9.20;99.90
70548;DHT22;58099;43.406;3.698;2022-12-18T13:20:47;9.40;99.90
70548;DHT22;58099;43.406;3.698;2022-12-18T13:25:53;9.40;99.90
70548;DHT22;58099;43.406;3.698;2022-12-18T13:28:23;9.40;99.90
70548;DHT22;58099;43.406;3.698;2022-12-18T13:30:57;9.40;99.90
70548;DHT22;58099;43.406;3.698;2022-12-18T13:41:01;9.60;99.90
70548;DHT22;58099;43.406;3.698;2022-12-18T13:43:31;9.60;99.90
70548;DHT22;58099;43.406;3.698;2022-12-18T13:48:56;9.70;99.90
70548;DHT22;58099;43.406;3.698;2022-12-18T13:51:23;9.70;99.90
70548;DHT22;58099;43.406;3.698;2022-12-18T13:54:01;9.80;99.90
70548;DHT22;58099;43.406;3.698;2022-12-18T13:56:31;9.80;99.90
70548;DHT22;58099;43.406;3.698;2022-12-18T13:59:24;9.80;99.90
70548;DHT22;58099;43.406;3.698;2022-12-18T14:01:58;9.80;99.90
70548;DHT22;58099;43.406;3.698;2022-12-18T14:04:28;9.80;99.90
70548;DHT22;58099;43.406;3.698;2022-12-18T14:07:28;9.80;99.90
70548;DHT22;58099;43.406;3.698;2022-12-18T14:09:53;9.80;99.90
70548;DHT22;58099;43.406;3.698;2022-12-18T14:12:35;9.80;99.90
70548;DHT22;58099;43.406;3.698;2022-12-18T14:17:59;9.90;99.90
70548;DHT22;58099;43.406;3.698;2022-12-18T14:20:31;9.80;99.90
70548;DHT22;58099;43.406;3.698;2022-12-18T14:22:58;9.90;99.90
70548;DHT22;58099;43.406;3.698;2022-12-18T14:25:27;9.80;99.90
70548;DHT22;58099;43.406;3.698;2022-12-18T14:30:39;9.90;99.90
70548;DHT22;58099;43.406;3.698;2022-12-18T14:35:38;9.90;99.90
70548;DHT22;58099;43.406;3.698;2022-12-18T14:40:43;9.90;99.90
70548;DHT22;58099;43.406;3.698;2022-12-18T14:43:13;9.90;99.90
70548;DHT22;58099;43.406;3.698;2022-12-18T14:45:45;10.00;99.90
70548;DHT22;58099;43.406;3.698;2022-12-18T14:48:14;10.00;99.90
70548;DHT22;58099;43.406;3.698;2022-12-18T14:50:41;10.00;99.90
70548;DHT22;58099;43.406;3.698;2022-12-18T14:53:20;10.10;99.90
70548;DHT22;58099;43.406;3.698;2022-12-18T14:55:47;10.10;99.90
70548;DHT22;58099;43.406;3.698;2022-12-18T14:58:15;10.10;99.90
70548;DHT22;58099;43.406;3.698;2022-12-18T15:00:42;10.20;99.90
70548;DHT22;58099;43.406;3.698;2022-12-18T15:03:09;10.20;99.90
70548;DHT22;58099;43.406;3.698;2022-12-18T15:05:35;10.20;99.90
70548;DHT22;58099;43.406;3.698;2022-12-18T15:08:02;10.30;99.90
70548;DHT22;58099;43.406;3.698;2022-12-18T15:10:32;10.30;99.90
70548;DHT22;58099;43.406;3.698;2022-12-18T15:15:46;10.60;99.90
70548;DHT22;58099;43.406;3.698;2022-12-18T15:18:29;10.70;99.90
70548;DHT22;58099;43.406;3.698;2022-12-18T15:21:06;10.70;99.90
70548;DHT22;58099;43.406;3.698;2022-12-18T15:26:06;10.70;99.90
70548;DHT22;58099;43.406;3.698;2022-12-18T15:33:41;10.70;99.90
70548;DHT22;58099;43.406;3.698;2022-12-18T15:36:13;10.70;99.90
70548;DHT22;58099;43.406;3.698;2022-12-18T15:38:39;11.00;99.90
70548;DHT22;58099;43.406;3.698;2022-12-18T15:41:17;11.30;99.90
70548;DHT22;58099;43.406;3.698;2022-12-18T15:43:43;11.90;99.90
70548;DHT22;58099;43.406;3.698;2022-12-18T15:46:21;12.20;99.90
70548;DHT22;58099;43.406;3.698;2022-12-18T15:48:52;12.50;99.90
70548;DHT22;58099;43.406;3.698;2022-12-18T15:53:46;12.70;99.90
70548;DHT22;58099;43.406;3.698;2022-12-18T15:56:14;12.70;99.90
70548;DHT22;58099;43.406;3.698;2022-12-18T15:59:12;12.80;99.90
70548;DHT22;58099;43.406;3.698;2022-12-18T16:01:39;13.00;99.90
70548;DHT22;58099;43.406;3.698;2022-12-18T16:04:05;13.00;99.90
70548;DHT22;58099;43.406;3.698;2022-12-18T16:06:31;13.00;99.90
70548;DHT22;58099;43.406;3.698;2022-12-18T16:08:58;13.00;99.90
70548;DHT22;58099;43.406;3.698;2022-12-18T16:11:28;13.00;99.90
70548;DHT22;58099;43.406;3.698;2022-12-18T16:14:20;13.00;99.90
70548;DHT22;58099;43.406;3.698;2022-12-18T16:16:48;13.10;99.90
70548;DHT22;58099;43.406;3.698;2022-12-18T16:19:15;13.00;99.90
70548;DHT22;58099;43.406;3.698;2022-12-18T16:21:42;13.10;99.90
70548;DHT22;58099;43.406;3.698;2022-12-18T16:24:18;13.10;99.90
70548;DHT22;58099;43.406;3.698;2022-12-18T16:26:47;13.20;99.90
70548;DHT22;58099;43.406;3.698;2022-12-18T16:29:13;13.20;99.90
70548;DHT22;58099;43.406;3.698;2022-12-18T16:31:39;13.20;99.90
70548;DHT22;58099;43.406;3.698;2022-12-18T16:34:21;13.30;99.90
70548;DHT22;58099;43.406;3.698;2022-12-18T16:36:50;13.30;99.90
70548;DHT22;58099;43.406;3.698;2022-12-18T16:39:17;13.30;99.90
70548;DHT22;58099;43.406;3.698;2022-12-18T16:41:43;13.30;99.90
70548;DHT22;58099;43.406;3.698;2022-12-18T16:44:09;13.30;99.90
70548;DHT22;58099;43.406;3.698;2022-12-18T16:46:35;13.30;99.90
70548;DHT22;58099;43.406;3.698;2022-12-18T16:49:02;13.30;99.90
70548;DHT22;58099;43.406;3.698;2022-12-18T16:51:29;13.30;99.90
70548;DHT22;58099;43.406;3.698;2022-12-18T16:53:56;13.30;99.90
70548;DHT22;58099;43.406;3.698;2022-12-18T16:56:21;13.30;99.90
70548;DHT22;58099;43.406;3.698;2022-12-18T16:58:51;13.30;99.90
70548;DHT22;58099;43.406;3.698;2022-12-18T17:01:17;13.30;99.90
70548;DHT22;58099;43.406;3.698;2022-12-18T17:03:43;13.30;99.90
70548;DHT22;58099;43.406;3.698;2022-12-18T17:06:09;13.40;99.90
70548;DHT22;58099;43.406;3.698;2022-12-18T17:08:34;13.40;99.90
70548;DHT22;58099;43.406;3.698;2022-12-18T17:11:06;13.40;99.90
70548;DHT22;58099;43.406;3.698;2022-12-18T17:13:31;13.40;99.90
70548;DHT22;58099;43.406;3.698;2022-12-18T17:16:06;13.30;99.90
70548;DHT22;58099;43.406;3.698;2022-12-18T17:18:33;13.30;99.90
70548;DHT22;58099;43.406;3.698;2022-12-18T17:21:03;13.40;99.90
70548;DHT22;58099;43.406;3.698;2022-12-18T17:23:29;13.50;99.90
70548;DHT22;58099;43.406;3.698;2022-12-18T17:25:58;13.50;99.90
70548;DHT22;58099;43.406;3.698;2022-12-18T17:28:25;13.50;99.90
70548;DHT22;58099;43.406;3.698;2022-12-18T17:30:52;13.40;99.90
70548;DHT22;58099;43.406;3.698;2022-12-18T17:33:18;13.50;99.90
70548;DHT22;58099;43.406;3.698;2022-12-18T17:35:44;13.50;99.90
70548;DHT22;58099;43.406;3.698;2022-12-18T17:38:09;13.50;99.90
70548;DHT22;58099;43.406;3.698;2022-12-18T17:40:35;13.50;99.90
70548;DHT22;58099;43.406;3.698;2022-12-18T17:43:01;13.50;99.90
70548;DHT22;58099;43.406;3.698;2022-12-18T17:45:27;13.50;99.90
70548;DHT22;58099;43.406;3.698;2022-12-18T17:47:53;13.50;99.90
70548;DHT22;58099;43.406;3.698;2022-12-18T17:50:19;13.50;99.90
70548;DHT22;58099;43.406;3.698;2022-12-18T17:52:44;13.50;99.90
70548;DHT22;58099;43.406;3.698;2022-12-18T17:55:10;13.50;99.90
70548;DHT22;58099;43.406;3.698;2022-12-18T17:57:36;13.60;99.90
70548;DHT22;58099;43.406;3.698;2022-12-18T18:00:04;13.60;99.90
70548;DHT22;58099;43.406;3.698;2022-12-18T18:02:30;13.60;99.90
70548;DHT22;58099;43.406;3.698;2022-12-18T18:04:56;13.60;99.90
70548;DHT22;58099;43.406;3.698;2022-12-18T18:07:22;13.50;99.90
70548;DHT22;58099;43.406;3.698;2022-12-18T18:09:47;13.50;99.90
70548;DHT22;58099;43.406;3.698;2022-12-18T18:12:16;13.60;99.90
70548;DHT22;58099;43.406;3.698;2022-12-18T18:15:05;13.60;99.90
70548;DHT22;58099;43.406;3.698;2022-12-18T18:17:31;13.60;99.90
70548;DHT22;58099;43.406;3.698;2022-12-18T18:19:56;13.60;99.90
70548;DHT22;58099;43.406;3.698;2022-12-18T18:22:22;13.60;99.90
70548;DHT22;58099;43.406;3.698;2022-12-18T18:24:48;13.60;99.90
70548;DHT22;58099;43.406;3.698;2022-12-18T18:27:13;13.70;99.90
70548;DHT22;58099;43.406;3.698;2022-12-18T18:29:39;13.60;99.90
70548;DHT22;58099;43.406;3.698;2022-12-18T18:32:05;13.70;99.90
70548;DHT22;58099;43.406;3.698;2022-12-18T18:34:32;13.60;99.90
70548;DHT22;58099;43.406;3.698;2022-12-18T18:36:58;13.60;99.90
70548;DHT22;58099;43.406;3.698;2022-12-18T18:39:24;13.60;99.90
70548;DHT22;58099;43.406;3.698;2022-12-18T18:41:53;13.60;99.90
70548;DHT22;58099;43.406;3.698;2022-12-18T18:44:20;13.60;99.90
70548;DHT22;58099;43.406;3.698;2022-12-18T18:46:46;13.60;99.90
70548;DHT22;58099;43.406;3.698;2022-12-18T18:49:12;13.70;99.90
70548;DHT22;58099;43.406;3.698;2022-12-18T18:51:42;13.60;99.90
70548;DHT22;58099;43.406;3.698;2022-12-18T18:54:07;13.70;99.90
70548;DHT22;58099;43.406;3.698;2022-12-18T18:56:33;13.60;99.90
70548;DHT22;58099;43.406;3.698;2022-12-18T18:58:59;13.70;99.90
70548;DHT22;58099;43.406;3.698;2022-12-18T19:01:25;13.60;99.90
70548;DHT22;58099;43.406;3.698;2022-12-18T19:03:52;13.60;99.90
70548;DHT22;58099;43.406;3.698;2022-12-18T19:06:21;13.70;99.90
70548;DHT22;58099;43.406;3.698;2022-12-18T19:08:51;13.70;99.90
70548;DHT22;58099;43.406;3.698;2022-12-18T19:11:18;13.70;99.90
70548;DHT22;58099;43.406;3.698;2022-12-18T19:14:04;13.70;99.90
70548;DHT22;58099;43.406;3.698;2022-12-18T19:16:31;13.70;99.90
70548;DHT22;58099;43.406;3.698;2022-12-18T19:18:57;13.70;99.90
70548;DHT22;58099;43.406;3.698;2022-12-18T19:21:23;13.70;99.90
70548;DHT22;58099;43.406;3.698;2022-12-18T19:23:49;13.60;99.90
70548;DHT22;58099;43.406;3.698;2022-12-18T19:26:19;13.70;99.90
70548;DHT22;58099;43.406;3.698;2022-12-18T19:28:45;13.70;99.90
70548;DHT22;58099;43.406;3.698;2022-12-18T19:31:14;13.70;99.90
70548;DHT22;58099;43.406;3.698;2022-12-18T19:33:41;13.70;99.90
70548;DHT22;58099;43.406;3.698;2022-12-18T19:36:21;13.70;99.90
70548;DHT22;58099;43.406;3.698;2022-12-18T19:38:49;13.70;99.90
70548;DHT22;58099;43.406;3.698;2022-12-18T19:41:16;13.80;99.90
70548;DHT22;58099;43.406;3.698;2022-12-18T19:43:43;13.70;99.90
70548;DHT22;58099;43.406;3.698;2022-12-18T19:46:12;13.60;99.90
70548;DHT22;58099;43.406;3.698;2022-12-18T19:48:39;13.60;99.90
70548;DHT22;58099;43.406;3.698;2022-12-18T19:51:24;13.60;99.90
70548;DHT22;58099;43.406;3.698;2022-12-18T19:53:51;13.60;99.90
70548;DHT22;58099;43.406;3.698;2022-12-18T19:56:19;13.60;99.90
70548;DHT22;58099;43.406;3.698;2022-12-18T19:58:45;13.50;99.90
70548;DHT22;58099;43.406;3.698;2022-12-18T20:01:15;13.50;99.90
70548;DHT22;58099;43.406;3.698;2022-12-18T20:03:42;13.40;99.90
70548;DHT22;58099;43.406;3.698;2022-12-18T20:06:26;13.40;99.90
70548;DHT22;58099;43.406;3.698;2022-12-18T20:08:53;13.50;99.90
70548;DHT22;58099;43.406;3.698;2022-12-18T20:11:20;13.40;99.90
70548;DHT22;58099;43.406;3.698;2022-12-18T20:13:46;13.50;99.90
70548;DHT22;58099;43.406;3.698;2022-12-18T20:16:12;13.50;99.90
70548;DHT22;58099;43.406;3.698;2022-12-18T20:18:38;13.50;99.90
70548;DHT22;58099;43.406;3.698;2022-12-18T20:21:04;13.50;99.90
70548;DHT22;58099;43.406;3.698;2022-12-18T20:23:30;13.50;99.90
70548;DHT22;58099;43.406;3.698;2022-12-18T20:25:56;13.50;99.90
70548;DHT22;58099;43.406;3.698;2022-12-18T20:28:22;13.50;99.90
70548;DHT22;58099;43.406;3.698;2022-12-18T20:30:50;13.50;99.90
70548;DHT22;58099;43.406;3.698;2022-12-18T20:33:22;13.50;99.90
70548;DHT22;58099;43.406;3.698;2022-12-18T20:35:48;13.50;99.90
70548;DHT22;58099;43.406;3.698;2022-12-18T20:38:14;13.50;99.90
70548;DHT22;58099;43.406;3.698;2022-12-18T20:40:40;13.50;99.90
70548;DHT22;58099;43.406;3.698;2022-12-18T20:43:07;13.50;99.90
70548;DHT22;58099;43.406;3.698;2022-12-18T20:45:33;13.50;99.90
70548;DHT22;58099;43.406;3.698;2022-12-18T20:47:58;13.50;99.90
70548;DHT22;58099;43.406;3.698;2022-12-18T20:50:26;13.50;99.90
70548;DHT22;58099;43.406;3.698;2022-12-18T20:52:52;13.50;99.90
70548;DHT22;58099;43.406;3.698;2022-12-18T20:55:18;13.50;99.90
70548;DHT22;58099;43.406;3.698;2022-12-18T20:57:44;13.50;99.90
70548;DHT22;58099;43.406;3.698;2022-12-18T21:00:10;13.50;99.90
70548;DHT22;58099;43.406;3.698;2022-12-18T21:02:37;13.60;99.90
70548;DHT22;58099;43.406;3.698;2022-12-18T21:05:03;13.60;99.90
70548;DHT22;58099;43.406;3.698;2022-12-18T21:07:28;13.50;99.90
70548;DHT22;58099;43.406;3.698;2022-12-18T21:09:54;13.50;99.90
70548;DHT22;58099;43.406;3.698;2022-12-18T21:12:20;13.50;99.90
70548;DHT22;58099;43.406;3.698;2022-12-18T21:15:11;13.50;99.90
70548;DHT22;58099;43.406;3.698;2022-12-18T21:17:37;13.50;99.90
70548;DHT22;58099;43.406;3.698;2022-12-18T21:20:02;13.50;99.90
70548;DHT22;58099;43.406;3.698;2022-12-18T21:22:28;13.60;99.90
70548;DHT22;58099;43.406;3.698;2022-12-18T21:24:54;13.60;99.90
70548;DHT22;58099;43.406;3.698;2022-12-18T21:27:20;13.60;99.90
70548;DHT22;58099;43.406;3.698;2022-12-18T21:29:45;13.60;99.90
70548;DHT22;58099;43.406;3.698;2022-12-18T21:32:11;13.60;99.90
70548;DHT22;58099;43.406;3.698;2022-12-18T21:34:39;13.60;99.90
70548;DHT22;58099;43.406;3.698;2022-12-18T21:37:05;13.60;99.90
70548;DHT22;58099;43.406;3.698;2022-12-18T21:39:31;13.60;99.90
70548;DHT22;58099;43.406;3.698;2022-12-18T21:41:57;13.60;99.90
70548;DHT22;58099;43.406;3.698;2022-12-18T21:44:42;13.60;99.90
70548;DHT22;58099;43.406;3.698;2022-12-18T21:47:10;13.60;99.90
70548;DHT22;58099;43.406;3.698;2022-12-18T21:49:36;13.60;99.90
70548;DHT22;58099;43.406;3.698;2022-12-18T21:52:02;13.60;99.90
70548;DHT22;58099;43.406;3.698;2022-12-18T21:54:28;13.60;99.90
70548;DHT22;58099;43.406;3.698;2022-12-18T21:56:58;13.70;99.90
70548;DHT22;58099;43.406;3.698;2022-12-18T21:59:26;13.60;99.90
70548;DHT22;58099;43.406;3.698;2022-12-18T22:01:54;13.60;99.90
70548;DHT22;58099;43.406;3.698;2022-12-18T22:04:20;13.60;99.90
70548;DHT22;58099;43.406;3.698;2022-12-18T22:06:46;13.60;99.90
70548;DHT22;58099;43.406;3.698;2022-12-18T22:09:14;13.60;99.90
70548;DHT22;58099;43.406;3.698;2022-12-18T22:11:41;13.60;99.90
70548;DHT22;58099;43.406;3.698;2022-12-18T22:14:07;13.70;99.90
70548;DHT22;58099;43.406;3.698;2022-12-18T22:16:33;13.70;99.90
70548;DHT22;58099;43.406;3.698;2022-12-18T22:18:59;13.70;99.90
70548;DHT22;58099;43.406;3.698;2022-12-18T22:21:25;13.70;99.90
70548;DHT22;58099;43.406;3.698;2022-12-18T22:24:25;13.70;99.90
70548;DHT22;58099;43.406;3.698;2022-12-18T22:26:53;13.70;99.90
70548;DHT22;58099;43.406;3.698;2022-12-18T22:29:21;13.80;99.90
70548;DHT22;58099;43.406;3.698;2022-12-18T22:32:09;13.80;99.90
70548;DHT22;58099;43.406;3.698;2022-12-18T22:34:35;13.70;99.90
70548;DHT22;58099;43.406;3.698;2022-12-18T22:37:01;13.70;99.90
70548;DHT22;58099;43.406;3.698;2022-12-18T22:39:28;13.80;99.90
70548;DHT22;58099;43.406;3.698;2022-12-18T22:41:54;13.80;99.90
70548;DHT22;58099;43.406;3.698;2022-12-18T22:44:21;13.80;99.90
70548;DHT22;58099;43.406;3.698;2022-12-18T22:46:48;13.80;99.90
70548;DHT22;58099;43.406;3.698;2022-12-18T22:49:16;13.80;99.90
70548;DHT22;58099;43.406;3.698;2022-12-18T22:51:44;13.80;99.90
70548;DHT22;58099;43.406;3.698;2022-12-18T22:54:10;13.80;99.90
70548;DHT22;58099;43.406;3.698;2022-12-18T22:56:36;13.80;99.90
70548;DHT22;58099;43.406;3.698;2022-12-18T22:59:02;13.80;99.90
70548;DHT22;58099;43.406;3.698;2022-12-18T23:01:29;13.80;99.90
70548;DHT22;58099;43.406;3.698;2022-12-18T23:03:55;13.80;99.90
70548;DHT22;58099;43.406;3.698;2022-12-18T23:06:23;13.90;99.90
70548;DHT22;58099;43.406;3.698;2022-12-18T23:08:50;13.80;99.90
70548;DHT22;58099;43.406;3.698;2022-12-18T23:11:17;13.90;99.90
70548;DHT22;58099;43.406;3.698;2022-12-18T23:13:43;13.80;99.90
70548;DHT22;58099;43.406;3.698;2022-12-18T23:16:18;13.90;99.90
70548;DHT22;58099;43.406;3.698;2022-12-18T23:18:44;13.90;99.90
70548;DHT22;58099;43.406;3.698;2022-12-18T23:21:16;13.90;99.90
70548;DHT22;58099;43.406;3.698;2022-12-18T23:23:42;13.90;99.90
70548;DHT22;58099;43.406;3.698;2022-12-18T23:26:14;13.90;99.90
70548;DHT22;58099;43.406;3.698;2022-12-18T23:28:41;13.90;99.90
70548;DHT22;58099;43.406;3.698;2022-12-18T23:31:08;13.90;99.90
70548;DHT22;58099;43.406;3.698;2022-12-18T23:33:35;13.90;99.90
70548;DHT22;58099;43.406;3.698;2022-12-18T23:36:01;13.90;99.90
70548;DHT22;58099;43.406;3.698;2022-12-18T23:38:28;14.00;99.90
70548;DHT22;58099;43.406;3.698;2022-12-18T23:40:54;14.00;99.90
70548;DHT22;58099;43.406;3.698;2022-12-18T23:43:20;14.00;99.90
70548;DHT22;58099;43.406;3.698;2022-12-18T23:45:46;14.00;99.90
70548;DHT22;58099;43.406;3.698;2022-12-18T23:48:12;14.00;99.90
70548;DHT22;58099;43.406;3.698;2022-12-18T23:50:37;14.00;99.90
70548;DHT22;58099;43.406;3.698;2022-12-18T23:53:03;14.10;99.90
70548;DHT22;58099;43.406;3.698;2022-12-18T23:55:29;14.00;99.90
70548;DHT22;58099;43.406;3.698;2022-12-18T23:57:55;14.10;99.90
